Cape Town, South Africa
Current Conditions -  °F | °C
As of 6:00 AM on Tuesday 21 Oct 2014 (Local Time) from FACT Reporting Station
Clear Clear  
Wind Chill: 59°   Ceiling: Unl
Heat Index: 59°   Visibility: 6mi
Dew Point: 52°   Wind: 3mph
Humidity: 77%   Direction: NA
Pressure: 29.97"   Gusts: NA
Location:  33.93°S, 18.46°E
Report Text: FACT 210400Z VRB03KT CAVOK 15/11 Q1015 NOSIG
Loading
Personal Weather Stations






























Interactive Weather Map
Tropical Storm Tracking
New forecast layout! Learn more

10-Day Weather Forecast

Advertisements
Track Severe Weather on mobile